TOURFACTS.DK  
Stats and Facts from Tour de France.

Tour de France 2019 starts in 348 days
  Riders   Stages   Teams   Summits   Yearly  


 
Search by year

After 2018 - Stage 14:
 15000 starters.
  5163 different riders.
  639 teams.
  2246 stages.
  456 restdays.
  441957.60 km.
  5678 abandonnees.


Top 3
GC
Christopher Froome86:20:55
Rigoberto Urán86:21:49
Romain Bardet86:23:15
Climb
Warren Barguil169 pt.
Primoz Roglic80 pt.
Thomas De Gendt64 pt.
Sprint
Michael Matthews359 pt.
André Greipel234 pt.
Edvald Boasson Hagen220 pt.
Youth
Simon Yates86:27:09
Louis Meintjes86:29:15
Emanuel Buchmann86:54:16
Facts from Tour de France 1931
  |   Stages.  |   Stage winners.  |   Days in yellow  |   Average speed.  |   Route.  |   Teams.  |   All riders.  |   Rookies.  |  

  |   Withdrawls.  |   GC.  |   Polka  |   Green  |   White  |   Summits. (In tour)  |   Miscellaneous.  |  

Stage 11 on July 11th. 1931
         Owning:    Antonin Magne    
Pick a stage:  1 2 3 4 5 6 7 8 9 10 11 12 13 14 15 16 17 18 19 20 21 22 23 24
From: Perpignan    To: MontpellierDist:164.00 km.

Average speed for all riders in stage:  27,817 km./hr.
    Place:Name:Team:Time:Km/h:
ITARafaële Di PacoITAItaly05:50:36  +  00:00:00=28,066 
FRACharles PelissierFRAFrance05:50:36  +  00:00:00=28,066 
FRAAndré LeducqFRAFrance05:51:07  +  00:00:31=28,025 
4 ITAFabio BattesiniITAItaly05:51:07  +  00:00:31=28,025 
5 FRALéon Le CalvezFRAFrance05:51:07  +  00:00:31=28,025 
6 GERKurt StöpelDEUGermany05:51:07  +  00:00:31=28,025 
7 AUTMax BullaTouristes Routiers05:51:07  +  00:00:31=28,025 
8 GEROskar ThierbachDEUGermany05:51:07  +  00:00:31=28,025 
9 GERLudwig GeyerDEUGermany05:51:07  +  00:00:31=28,025 
10 POLAlfred SiegelDEUGermany05:51:07  +  00:00:31=28,025 
11 GERHerbert SieronskiDEUGermany05:51:07  +  00:00:31=28,025 
12 FRAAntonin MagneFRAFrance05:51:07  +  00:00:31=28,025 
13 AUSHubert OppermanCHEAustralia-Switzerland05:51:07  +  00:00:31=28,025 
14 ITAAntonio PesentiITAItaly05:51:07  +  00:00:31=28,025 
15 BELMaurice De WaeleBELBelgium05:51:07  +  00:00:31=28,025 
16 ITAEugenio GestriITAItaly05:51:07  +  00:00:31=28,025 
17 BELJulien VervaeckeBELBelgium05:51:07  +  00:00:31=28,025 
18 BELJef DemuysereBELBelgium05:51:07  +  00:00:31=28,025 
19 BELGaston RebryBELBelgium05:51:07  +  00:00:31=28,025 
20 ITAAmulio ViarengoTouristes Routiers05:53:32  +  00:02:56=27,833 
21 FRAFrancois HenriTouristes Routiers05:53:32  +  00:02:56=27,833 
22 BELGerard LonckeTouristes Routiers05:54:14  +  00:03:38=27,778 
23 AUSRichard LambCHEAustralia-Switzerland05:54:18  +  00:03:42=27,773 
24 GERKarl AltenburgerDEUGermany05:54:18  +  00:03:42=27,773 
25 ESPFrancisco CepedaESPSpain05:54:18  +  00:03:42=27,773 
26 GERKurt NitzschkeTouristes Routiers05:54:18  +  00:03:42=27,773 
27 BELRobert Van GrootenbrueleTouristes Routiers05:54:18  +  00:03:42=27,773 
28 ITAGiuseppe PanceraTouristes Routiers05:54:18  +  00:03:42=27,773 
29 ITAAlessandro CatalaniTouristes Routiers05:54:18  +  00:03:42=27,773 
30 FRAFrancis BouilletTouristes Routiers05:54:18  +  00:03:42=27,773 
31 FRAGeorges BertonTouristes Routiers05:54:18  +  00:03:42=27,773 
32 FRAAndré Van VierstTouristes Routiers05:54:18  +  00:03:42=27,773 
33 FRALouis BajardTouristes Routiers05:54:18  +  00:03:42=27,773 
34 FRAFernand FayolleTouristes Routiers05:54:18  +  00:03:42=27,773 
35 GERErich UssatTouristes Routiers05:54:18  +  00:03:42=27,773 
36 FRAAndré GodinatTouristes Routiers05:54:18  +  00:03:42=27,773 
37 FRARené BernardTouristes Routiers05:54:18  +  00:03:42=27,773 
38 FRAMarius GuiramandTouristes Routiers05:54:18  +  00:03:42=27,773 
39 FRAAdrien ButtafocchiTouristes Routiers05:54:18  +  00:03:42=27,773 
40 BELAuguste Van TrichtTouristes Routiers05:54:18  +  00:03:42=27,773 
41 BELAchille ViaeneTouristes Routiers05:54:18  +  00:03:42=27,773 
42 SUIRoger PipozCHEAustralia-Switzerland05:54:18  +  00:03:42=27,773 
43 ITAMichele OrecchiaITAItaly05:54:18  +  00:03:42=27,773 
44 SUIAlbert BüchiCHEAustralia-Switzerland05:54:18  +  00:03:42=27,773 
45 ITAFelice GremoITAItaly05:54:18  +  00:03:42=27,773 
46 GERErich MetzeDEUGermany05:54:18  +  00:03:42=27,773 
47 BELBernard Van RysselbergheBELBelgium05:54:18  +  00:03:42=27,773 
48 FRABenoit FaureFRAFrance05:54:18  +  00:03:42=27,773 
49 FRAJean MaréchalFRAFrance05:54:18  +  00:03:42=27,773 
50 BELAlfons SchepersBELBelgium05:54:18  +  00:03:42=27,773 
51 BELRomain GijsselsBELBelgium05:54:18  +  00:03:42=27,773 
52 BELJules GoedhuysTouristes Routiers05:54:18  +  00:03:42=27,773 
53 BELAlfred HamerlinckBELBelgium05:54:18  +  00:03:42=27,773 
54 SUIGeorges AntenenCHEAustralia-Switzerland05:56:06  +  00:05:30=27,633 
55 FRARobert BrugéreTouristes Routiers05:57:05  +  00:06:29=27,557 
56 GERHermann BuseDEUGermany05:57:05  +  00:06:29=27,557 
57 FRAJoseph MauclairFRAFrance05:57:05  +  00:06:29=27,557 
58 FRAJean BidotTouristes Routiers05:57:05  +  00:06:29=27,557 
59 FRALazare VenotTouristes Routiers05:57:21  +  00:06:45=27,536 
60 FRALouis PeglionFRAFrance05:57:21  +  00:06:45=27,536 
61 BELFrançois MoreelsTouristes Routiers06:04:10  +  00:13:34=27,021 


Todays birthdays.

1877  Antoine Perrichon
1878  Auguste Berthault
1911  Théo Herckenrath
1924  Carlo Lafranchi
1931  Armand Di Caro
1937  Jean-Claude Lebaube
1951  Giovanni Battaglin
1961  Pascal Jules
1962  Jean-Claude Leclercq
1976  Janek Tombak
1978  Francisco Pérez
1983  Dries Devenyns




Visits: